Time;durP1;ratioP1;P1;durP2;ratioP2;P2;SDS_P1;SDS_P2;PMS_P1;PMS_P2;Temp;Humidity;BMP_temperature;BMP_pressure;BME280_temperature;BME280_humidity;BME280_pressure;Samples;Min_cycle;Max_cycle;Signal;HPM_P1;HPM_P2
2024/04/06 00:00:57;;;;;;;61.57;5.43;;;;;;;;;;5072570;28;20509;-68
2024/04/06 00:03:24;;;;;;;58.60;6.07;;;;;;;;;;5072952;28;20851;-69
2024/04/06 00:05:50;;;;;;;58.73;4.80;;;;;;;;;;5070347;28;20452;-68
2024/04/06 00:08:17;;;;;;;60.67;5.00;;;;;;;;;;5072751;28;20463;-68
2024/04/06 00:10:43;;;;;;;60.90;5.43;;;;;;;;;;5072473;28;20455;-67
2024/04/06 00:13:10;;;;;;;61.37;6.33;;;;;;;;;;5072469;28;20515;-67
2024/04/06 00:15:38;;;;;;;61.00;5.13;;;;;;;;;;5072707;28;20538;-68
2024/04/06 00:18:05;;;;;;;59.50;5.57;;;;;;;;;;5072199;28;20559;-68
2024/04/06 00:20:34;;;;;;;60.97;4.93;;;;;;;;;;5072279;28;20452;-68
2024/04/06 00:23:01;;;;;;;59.17;4.83;;;;;;;;;;5071970;28;20480;-67
2024/04/06 00:25:27;;;;;;;62.33;5.27;;;;;;;;;;5072493;28;20448;-68
2024/04/06 00:27:55;;;;;;;60.37;4.83;;;;;;;;;;5072331;28;20502;-68
2024/04/06 00:30:21;;;;;;;59.30;4.70;;;;;;;;;;5071153;28;20455;-68
2024/04/06 00:32:49;;;;;;;57.80;4.80;;;;;;;;;;5071722;28;20476;-68
2024/04/06 00:35:15;;;;;;;58.50;4.73;;;;;;;;;;5071355;28;20458;-68
2024/04/06 00:37:43;;;;;;;58.60;4.80;;;;;;;;;;5072299;28;20897;-68
2024/04/06 00:40:09;;;;;;;58.97;4.57;;;;;;;;;;5065678;28;20534;-68
2024/04/06 00:42:36;;;;;;;60.50;5.30;;;;;;;;;;5072165;28;20456;-68
2024/04/06 00:45:03;;;;;;;60.47;4.70;;;;;;;;;;5072286;28;20539;-68
2024/04/06 00:47:30;;;;;;;60.37;5.20;;;;;;;;;;5072846;28;20809;-68
2024/04/06 00:49:58;;;;;;;58.37;5.00;;;;;;;;;;5072739;28;21960;-68
2024/04/06 00:52:25;;;;;;;60.30;5.43;;;;;;;;;;5072311;28;20491;-68
2024/04/06 00:54:51;;;;;;;59.57;5.00;;;;;;;;;;5068523;28;20447;-68
2024/04/06 00:57:18;;;;;;;58.37;4.90;;;;;;;;;;5066453;28;20453;-68
2024/04/06 00:59:44;;;;;;;58.47;4.30;;;;;;;;;;5069543;28;20476;-68
2024/04/06 01:02:11;;;;;;;58.47;4.77;;;;;;;;;;5072226;28;20452;-68
2024/04/06 01:04:38;;;;;;;62.30;5.37;;;;;;;;;;5070814;28;20555;-68
2024/04/06 01:07:06;;;;;;;57.13;4.13;;;;;;;;;;5072257;28;20452;-68
2024/04/06 01:09:32;;;;;;;58.77;4.80;;;;;;;;;;5072228;28;20995;-68
2024/04/06 01:11:59;;;;;;;58.73;4.47;;;;;;;;;;5071539;28;20483;-68
2024/04/06 01:14:25;;;;;;;60.37;4.77;;;;;;;;;;5071911;28;20452;-68
2024/04/06 01:16:53;;;;;;;62.90;5.00;;;;;;;;;;5072225;28;20454;-68
2024/04/06 01:19:19;;;;;;;57.80;4.80;;;;;;;;;;5072526;28;20463;-68
2024/04/06 01:21:46;;;;;;;59.17;4.60;;;;;;;;;;5072262;28;20457;-67
2024/04/06 01:24:26;;;;;;;62.40;4.50;;;;;;;;;;5072011;28;20452;-68
2024/04/06 01:26:53;;;;;;;61.80;4.87;;;;;;;;;;5072405;28;20510;-68
2024/04/06 01:29:20;;;;;;;58.17;4.23;;;;;;;;;;5072430;28;20467;-68
2024/04/06 01:31:47;;;;;;;59.57;5.00;;;;;;;;;;5072268;28;20527;-68
2024/04/06 01:34:13;;;;;;;60.40;5.00;;;;;;;;;;5072503;28;20575;-68
2024/04/06 01:36:41;;;;;;;57.77;4.70;;;;;;;;;;5070486;28;20501;-68
2024/04/06 01:39:07;;;;;;;59.57;5.17;;;;;;;;;;5072195;28;20468;-68
2024/04/06 01:41:36;;;;;;;61.30;5.30;;;;;;;;;;5074902;28;20527;-68
2024/04/06 01:44:02;;;;;;;59.20;4.50;;;;;;;;;;5074394;28;20846;-68
2024/04/06 01:46:29;;;;;;;59.90;4.77;;;;;;;;;;5069297;28;20459;-68
2024/04/06 01:48:56;;;;;;;59.10;5.13;;;;;;;;;;5074845;28;20474;-68
2024/04/06 01:51:23;;;;;;;58.67;4.67;;;;;;;;;;5075674;28;20452;-68
2024/04/06 01:53:49;;;;;;;63.47;5.70;;;;;;;;;;5073797;28;20496;-68
2024/04/06 01:56:16;;;;;;;59.20;5.40;;;;;;;;;;5076234;28;20531;-68
2024/04/06 01:58:44;;;;;;;57.47;4.27;;;;;;;;;;5075836;28;20831;-68
2024/04/06 02:01:12;;;;;;;59.80;4.90;;;;;;;;;;5075887;28;20455;-68
2024/04/06 02:03:38;;;;;;;66.47;5.70;;;;;;;;;;5074912;28;20502;-68
2024/04/06 02:06:06;;;;;;;59.07;5.10;;;;;;;;;;5076022;28;20517;-68
2024/04/06 02:08:32;;;;;;;61.27;5.63;;;;;;;;;;5075495;28;20471;-68
2024/04/06 02:10:59;;;;;;;59.13;5.60;;;;;;;;;;5075103;28;20456;-68
2024/04/06 02:13:25;;;;;;;59.20;5.80;;;;;;;;;;5074859;28;20487;-67
2024/04/06 02:15:54;;;;;;;58.87;5.60;;;;;;;;;;5075361;28;20454;-68
2024/04/06 02:18:20;;;;;;;60.70;5.13;;;;;;;;;;5075282;28;20476;-68
2024/04/06 02:20:47;;;;;;;62.57;5.30;;;;;;;;;;5075027;28;20530;-68
2024/04/06 02:23:13;;;;;;;61.47;5.30;;;;;;;;;;5074391;28;20654;-68
2024/04/06 02:25:41;;;;;;;61.13;5.50;;;;;;;;;;5074564;28;20477;-68
2024/04/06 02:28:07;;;;;;;58.47;5.10;;;;;;;;;;5073920;28;20468;-68
2024/04/06 02:30:35;;;;;;;61.37;4.77;;;;;;;;;;5074726;28;20468;-68
2024/04/06 02:33:03;;;;;;;59.00;5.60;;;;;;;;;;5074444;28;20489;-68
2024/04/06 02:35:30;;;;;;;58.97;5.10;;;;;;;;;;5074500;28;20543;-68
2024/04/06 02:37:57;;;;;;;65.10;5.60;;;;;;;;;;5074866;28;20464;-68
2024/04/06 02:40:24;;;;;;;58.27;5.00;;;;;;;;;;5073840;28;20870;-68
2024/04/06 02:42:50;;;;;;;60.70;5.60;;;;;;;;;;5074333;28;20444;-68
2024/04/06 02:45:17;;;;;;;61.30;4.60;;;;;;;;;;5073726;28;20548;-68
2024/04/06 02:47:44;;;;;;;62.60;5.63;;;;;;;;;;5074057;28;20506;-68
2024/04/06 02:50:12;;;;;;;59.33;5.60;;;;;;;;;;5073684;28;20954;-68
2024/04/06 02:52:38;;;;;;;60.87;5.10;;;;;;;;;;5072942;28;20444;-68
2024/04/06 02:55:06;;;;;;;61.43;5.97;;;;;;;;;;5073152;28;20451;-68
2024/04/06 02:57:32;;;;;;;62.50;5.43;;;;;;;;;;5066733;28;20480;-68
2024/04/06 02:59:59;;;;;;;58.57;4.97;;;;;;;;;;5072035;28;20471;-68
2024/04/06 03:02:26;;;;;;;59.90;5.40;;;;;;;;;;5073407;28;20448;-68
2024/04/06 03:04:53;;;;;;;58.50;5.07;;;;;;;;;;5072996;28;20456;-68
2024/04/06 03:07:20;;;;;;;62.57;4.80;;;;;;;;;;5073494;28;20497;-68
2024/04/06 03:09:47;;;;;;;58.07;4.80;;;;;;;;;;5072672;28;21011;-68
2024/04/06 03:12:14;;;;;;;61.37;5.10;;;;;;;;;;5072443;28;21041;-68
2024/04/06 03:14:41;;;;;;;60.60;4.70;;;;;;;;;;5072663;28;20566;-68
2024/04/06 03:17:07;;;;;;;59.67;4.80;;;;;;;;;;5073101;28;20445;-68
2024/04/06 03:19:34;;;;;;;58.57;5.30;;;;;;;;;;5072805;28;20468;-68
2024/04/06 03:22:00;;;;;;;57.63;4.50;;;;;;;;;;5072479;28;20451;-68
2024/04/06 03:24:28;;;;;;;57.70;4.87;;;;;;;;;;5072751;28;20452;-68
2024/04/06 03:26:55;;;;;;;59.33;4.47;;;;;;;;;;5073370;28;20975;-68
2024/04/06 03:29:22;;;;;;;58.73;4.60;;;;;;;;;;5072978;28;20466;-68
2024/04/06 03:31:48;;;;;;;61.40;5.07;;;;;;;;;;5072464;28;20527;-68
2024/04/06 03:34:15;;;;;;;57.73;4.37;;;;;;;;;;5072179;28;20529;-68
2024/04/06 03:36:41;;;;;;;57.77;4.23;;;;;;;;;;5072289;28;20462;-68
2024/04/06 03:39:08;;;;;;;57.57;4.57;;;;;;;;;;5064270;28;20555;-68
2024/04/06 03:41:37;;;;;;;57.97;4.40;;;;;;;;;;5071992;28;20932;-68
2024/04/06 03:44:04;;;;;;;59.07;4.60;;;;;;;;;;5072401;28;20440;-68
2024/04/06 03:46:30;;;;;;;57.87;4.50;;;;;;;;;;5072707;28;20544;-68
2024/04/06 03:48:57;;;;;;;61.03;4.60;;;;;;;;;;5072101;28;20911;-67
2024/04/06 03:51:24;;;;;;;59.57;5.03;;;;;;;;;;5071886;28;20444;-68
2024/04/06 03:53:51;;;;;;;58.97;5.70;;;;;;;;;;5071907;28;20483;-68
2024/04/06 03:56:17;;;;;;;59.10;4.90;;;;;;;;;;5071946;28;20456;-68
2024/04/06 03:58:45;;;;;;;59.37;4.80;;;;;;;;;;5069361;28;20464;-68
2024/04/06 04:01:12;;;;;;;57.87;4.73;;;;;;;;;;5071583;28;20819;-68
2024/04/06 04:03:39;;;;;;;58.37;5.03;;;;;;;;;;5071195;28;20448;-68
2024/04/06 04:06:06;;;;;;;58.57;4.40;;;;;;;;;;5069014;28;20911;-68
2024/04/06 04:08:33;;;;;;;58.60;4.80;;;;;;;;;;5072004;28;20470;-68
2024/04/06 04:10:59;;;;;;;58.70;4.67;;;;;;;;;;5071446;28;20474;-68
2024/04/06 04:13:26;;;;;;;58.37;4.83;;;;;;;;;;5071514;28;21075;-68
2024/04/06 04:15:54;;;;;;;58.00;4.47;;;;;;;;;;5068811;28;20474;-68
2024/04/06 04:18:21;;;;;;;59.53;4.97;;;;;;;;;;5071605;28;20879;-68
2024/04/06 04:20:48;;;;;;;58.17;4.67;;;;;;;;;;5071132;28;20837;-68
2024/04/06 04:23:15;;;;;;;58.47;4.70;;;;;;;;;;5071626;28;20435;-68
2024/04/06 04:25:41;;;;;;;57.93;4.60;;;;;;;;;;5067793;28;20518;-68
2024/04/06 04:28:08;;;;;;;58.10;4.43;;;;;;;;;;5071481;28;20533;-68
2024/04/06 04:30:34;;;;;;;56.80;4.43;;;;;;;;;;5071200;28;20447;-68
2024/04/06 04:33:03;;;;;;;58.87;4.20;;;;;;;;;;5071110;28;20476;-68
2024/04/06 04:35:29;;;;;;;59.00;5.27;;;;;;;;;;5071532;28;20462;-68
2024/04/06 04:37:56;;;;;;;59.60;7.00;;;;;;;;;;5071256;28;21026;-68
2024/04/06 04:40:24;;;;;;;57.63;4.60;;;;;;;;;;5071178;28;20452;-68
2024/04/06 04:42:50;;;;;;;58.07;4.80;;;;;;;;;;5071306;28;20451;-68
2024/04/06 04:45:17;;;;;;;57.37;4.63;;;;;;;;;;5071409;28;20476;-68
2024/04/06 04:47:43;;;;;;;57.97;5.17;;;;;;;;;;5071665;28;20451;-68
2024/04/06 04:50:11;;;;;;;60.27;5.23;;;;;;;;;;5071156;28;20535;-67
2024/04/06 04:52:38;;;;;;;58.50;5.00;;;;;;;;;;5071321;28;20848;-68
2024/04/06 04:55:05;;;;;;;59.10;5.13;;;;;;;;;;5071213;28;20892;-67
2024/04/06 04:57:31;;;;;;;59.00;4.97;;;;;;;;;;5071371;28;20510;-67
2024/04/06 04:59:58;;;;;;;58.50;4.67;;;;;;;;;;5071078;28;20509;-67
2024/04/06 05:02:24;;;;;;;58.20;5.30;;;;;;;;;;5070817;28;21524;-68
2024/04/06 05:04:52;;;;;;;59.87;5.63;;;;;;;;;;5071176;28;20440;-67
2024/04/06 05:07:20;;;;;;;58.77;5.00;;;;;;;;;;5071253;28;20909;-67
2024/04/06 05:09:47;;;;;;;60.00;4.67;;;;;;;;;;5071663;28;20567;-67
2024/04/06 05:12:13;;;;;;;59.77;4.93;;;;;;;;;;5070691;28;20436;-67
2024/04/06 05:14:40;;;;;;;58.77;5.07;;;;;;;;;;5071449;28;20532;-67
2024/04/06 05:17:07;;;;;;;58.00;4.87;;;;;;;;;;5074585;28;20956;-68
2024/04/06 05:19:34;;;;;;;60.37;5.23;;;;;;;;;;5075440;28;20470;-67
2024/04/06 05:22:01;;;;;;;59.40;5.33;;;;;;;;;;5074658;28;20452;-68
2024/04/06 05:24:29;;;;;;;58.90;5.53;;;;;;;;;;5074800;28;20450;-67
2024/04/06 05:26:56;;;;;;;59.20;5.40;;;;;;;;;;5075112;28;20450;-67
2024/04/06 05:29:23;;;;;;;58.50;5.07;;;;;;;;;;5075374;28;20558;-67
2024/04/06 05:31:50;;;;;;;60.33;4.83;;;;;;;;;;5074788;28;20443;-68
2024/04/06 05:34:17;;;;;;;57.47;4.80;;;;;;;;;;5074482;28;20487;-67
2024/04/06 05:36:43;;;;;;;58.73;4.93;;;;;;;;;;5075022;28;20447;-67
2024/04/06 05:39:10;;;;;;;59.00;5.10;;;;;;;;;;5074729;28;20517;-67
2024/04/06 05:41:38;;;;;;;58.90;5.30;;;;;;;;;;5074207;28;20443;-67
2024/04/06 05:44:05;;;;;;;61.00;6.00;;;;;;;;;;5074694;28;20538;-68
2024/04/06 05:46:31;;;;;;;58.90;5.43;;;;;;;;;;5074846;28;20474;-67
2024/04/06 05:48:59;;;;;;;59.30;5.17;;;;;;;;;;5074507;28;20472;-67
2024/04/06 05:51:25;;;;;;;59.07;5.67;;;;;;;;;;5074129;28;20950;-67
2024/04/06 05:53:52;;;;;;;58.30;5.20;;;;;;;;;;5074263;28;20514;-67
2024/04/06 05:56:18;;;;;;;57.27;4.77;;;;;;;;;;5074269;28;20447;-68
2024/04/06 05:58:47;;;;;;;61.03;4.90;;;;;;;;;;5074287;28;20463;-67
2024/04/06 06:01:13;;;;;;;59.10;4.90;;;;;;;;;;5073616;28;20466;-68
2024/04/06 06:03:40;;;;;;;58.03;4.97;;;;;;;;;;5074349;28;20443;-68
2024/04/06 06:06:06;;;;;;;63.47;4.97;;;;;;;;;;5074603;28;20471;-69
2024/04/06 06:08:33;;;;;;;58.50;4.90;;;;;;;;;;5073849;28;20460;-68
2024/04/06 06:10:59;;;;;;;57.97;5.20;;;;;;;;;;5073481;28;20452;-68
2024/04/06 06:13:27;;;;;;;57.67;4.70;;;;;;;;;;5069696;28;20900;-68
2024/04/06 06:15:54;;;;;;;57.10;4.63;;;;;;;;;;5054255;28;20448;-68
2024/04/06 06:18:21;;;;;;;61.80;5.67;;;;;;;;;;5066411;28;20555;-68
2024/04/06 06:20:48;;;;;;;58.67;4.97;;;;;;;;;;5073639;28;20539;-68
2024/04/06 06:23:15;;;;;;;60.67;5.30;;;;;;;;;;5073985;28;20502;-68
2024/04/06 06:25:41;;;;;;;58.27;4.73;;;;;;;;;;5074248;28;20454;-68
2024/04/06 06:28:08;;;;;;;60.33;4.60;;;;;;;;;;5073516;28;20466;-68
2024/04/06 06:30:34;;;;;;;61.87;5.60;;;;;;;;;;5074329;28;20443;-68
2024/04/06 06:33:03;;;;;;;58.30;4.50;;;;;;;;;;5074338;28;20447;-68
2024/04/06 06:35:29;;;;;;;57.77;4.37;;;;;;;;;;5074348;28;20922;-68
2024/04/06 06:37:56;;;;;;;58.57;4.60;;;;;;;;;;5074925;28;20471;-68
2024/04/06 06:40:22;;;;;;;58.83;4.80;;;;;;;;;;5074547;28;20885;-68
2024/04/06 06:42:49;;;;;;;59.73;4.93;;;;;;;;;;5074506;28;20486;-68
2024/04/06 06:45:15;;;;;;;58.47;4.53;;;;;;;;;;5074973;28;20448;-68
2024/04/06 06:47:42;;;;;;;58.80;4.23;;;;;;;;;;5074762;28;20452;-68
2024/04/06 06:50:10;;;;;;;57.30;4.23;;;;;;;;;;5074224;28;20448;-68
2024/04/06 06:52:37;;;;;;;57.90;4.57;;;;;;;;;;5074499;28;20452;-68
2024/04/06 06:55:04;;;;;;;58.07;4.13;;;;;;;;;;5076703;28;20483;-68
2024/04/06 06:57:31;;;;;;;58.70;4.23;;;;;;;;;;5075293;28;20455;-68
2024/04/06 06:59:57;;;;;;;65.50;3.90;;;;;;;;;;5075231;28;20932;-68
2024/04/06 07:02:24;;;;;;;57.90;4.37;;;;;;;;;;5070839;28;20539;-68
2024/04/06 07:04:50;;;;;;;63.03;4.17;;;;;;;;;;5054910;28;20441;-68
2024/04/06 07:07:18;;;;;;;58.77;3.57;;;;;;;;;;5055097;28;20445;-69
2024/04/06 07:09:44;;;;;;;57.90;3.93;;;;;;;;;;5065152;28;20504;-68
2024/04/06 07:12:11;;;;;;;56.93;3.43;;;;;;;;;;5072002;28;20926;-69
2024/04/06 07:14:38;;;;;;;58.77;3.40;;;;;;;;;;5073863;28;20858;-69
2024/04/06 07:17:05;;;;;;;57.80;3.47;;;;;;;;;;5074389;28;20443;-69
2024/04/06 07:19:31;;;;;;;58.07;3.70;;;;;;;;;;5073763;28;20846;-69
2024/04/06 07:21:58;;;;;;;58.90;3.50;;;;;;;;;;5073728;28;20555;-68
2024/04/06 07:24:25;;;;;;;58.73;4.70;;;;;;;;;;5074094;28;20450;-69
2024/04/06 07:26:52;;;;;;;57.57;3.27;;;;;;;;;;5073551;28;20551;-69
2024/04/06 07:29:19;;;;;;;59.10;3.77;;;;;;;;;;5073128;28;20465;-69
2024/04/06 07:31:46;;;;;;;58.20;3.67;;;;;;;;;;5073172;28;20462;-66
2024/04/06 07:34:12;;;;;;;59.23;3.70;;;;;;;;;;5073038;28;20487;-67
2024/04/06 07:36:39;;;;;;;57.70;3.50;;;;;;;;;;5073889;28;20459;-67
2024/04/06 07:39:05;;;;;;;58.10;3.33;;;;;;;;;;5056142;28;20461;-67
2024/04/06 07:41:33;;;;;;;57.90;3.80;;;;;;;;;;5053073;28;20447;-67
2024/04/06 07:43:59;;;;;;;60.20;4.30;;;;;;;;;;5053416;28;20448;-67
2024/04/06 07:46:28;;;;;;;57.40;3.47;;;;;;;;;;5053325;28;20453;-67
2024/04/06 07:48:54;;;;;;;57.80;3.33;;;;;;;;;;5053631;28;20822;-67
2024/04/06 07:51:21;;;;;;;58.30;3.50;;;;;;;;;;5053191;28;20440;-67
2024/04/06 07:53:47;;;;;;;57.27;3.50;;;;;;;;;;5052904;28;20619;-67
2024/04/06 07:56:14;;;;;;;59.17;3.30;;;;;;;;;;5053405;28;20527;-67
2024/04/06 07:58:42;;;;;;;58.20;3.73;;;;;;;;;;5059036;28;20468;-67
2024/04/06 08:01:09;;;;;;;58.40;4.57;;;;;;;;;;5072585;28;20448;-67
2024/04/06 08:03:35;;;;;;;58.53;3.10;;;;;;;;;;5072934;28;20450;-67
2024/04/06 08:06:02;;;;;;;56.90;3.20;;;;;;;;;;5072905;28;20444;-68
2024/04/06 08:08:30;;;;;;;57.20;3.73;;;;;;;;;;5072926;28;20839;-68
2024/04/06 08:10:57;;;;;;;57.27;3.17;;;;;;;;;;5072538;28;20483;-67
2024/04/06 08:13:23;;;;;;;59.70;3.53;;;;;;;;;;5072654;28;20443;-67
2024/04/06 08:15:51;;;;;;;60.57;3.80;;;;;;;;;;5072608;28;20861;-67
2024/04/06 08:18:18;;;;;;;60.37;3.43;;;;;;;;;;5072125;28;20472;-67
2024/04/06 08:20:45;;;;;;;56.27;3.00;;;;;;;;;;5072775;28;20479;-67
2024/04/06 08:23:12;;;;;;;57.40;3.27;;;;;;;;;;5072426;28;20458;-67
2024/04/06 08:25:39;;;;;;;57.87;3.00;;;;;;;;;;5072624;28;20637;-68
2024/04/06 08:28:05;;;;;;;57.90;3.00;;;;;;;;;;5072243;28;20475;-67
2024/04/06 08:30:32;;;;;;;57.50;3.17;;;;;;;;;;5072070;28;20451;-67
2024/04/06 08:33:00;;;;;;;57.20;3.00;;;;;;;;;;5072486;28;20543;-68
2024/04/06 08:35:27;;;;;;;58.60;2.70;;;;;;;;;;5063963;28;20574;-68
2024/04/06 08:37:53;;;;;;;62.10;3.43;;;;;;;;;;5072338;28;20468;-68
2024/04/06 08:40:20;;;;;;;57.80;3.17;;;;;;;;;;5071700;28;20444;-68
2024/04/06 08:42:47;;;;;;;56.70;2.57;;;;;;;;;;5072226;28;20454;-68
2024/04/06 08:45:14;;;;;;;56.30;2.70;;;;;;;;;;5072379;28;20443;-68
2024/04/06 08:47:41;;;;;;;56.60;3.20;;;;;;;;;;5072638;28;20447;-68
2024/04/06 08:50:10;;;;;;;57.03;3.17;;;;;;;;;;5071008;28;20501;-68
2024/04/06 08:52:36;;;;;;;57.20;3.00;;;;;;;;;;5072261;28;20452;-68
2024/04/06 08:55:04;;;;;;;56.13;2.50;;;;;;;;;;5055024;28;20996;-68
2024/04/06 08:57:31;;;;;;;57.67;3.30;;;;;;;;;;5052237;28;20452;-68
2024/04/06 08:59:58;;;;;;;56.20;2.73;;;;;;;;;;5059938;28;20483;-68
2024/04/06 09:02:25;;;;;;;58.70;3.07;;;;;;;;;;5071477;28;20448;-68
2024/04/06 09:04:52;;;;;;;56.47;2.80;;;;;;;;;;5071995;28;20443;-68
2024/04/06 09:07:19;;;;;;;59.60;2.63;;;;;;;;;;5072170;28;20850;-68
2024/04/06 09:09:46;;;;;;;56.30;2.53;;;;;;;;;;5071915;28;20911;-68
2024/04/06 09:12:12;;;;;;;56.27;2.87;;;;;;;;;;5068268;28;20536;-69
2024/04/06 09:14:41;;;;;;;56.23;2.63;;;;;;;;;;5072001;28;20920;-69
2024/04/06 09:17:07;;;;;;;56.67;3.20;;;;;;;;;;5071949;28;20459;-68
2024/04/06 09:19:34;;;;;;;56.70;2.80;;;;;;;;;;5071661;28;20531;-66
2024/04/06 09:22:00;;;;;;;56.30;2.80;;;;;;;;;;5071557;28;20452;-67
2024/04/06 09:24:29;;;;;;;58.07;2.90;;;;;;;;;;5069012;28;21035;-67
2024/04/06 09:27:03;;;;;;;56.00;2.90;;;;;;;;;;5071998;28;20454;-67
2024/04/06 09:29:30;;;;;;;59.73;2.93;;;;;;;;;;5071446;28;20839;-67
2024/04/06 09:32:00;;;;;;;59.60;3.10;;;;;;;;;;5071518;28;20439;-66
2024/04/06 09:34:27;;;;;;;56.57;2.70;;;;;;;;;;5067563;28;20484;-66
2024/04/06 09:36:57;;;;;;;55.87;2.40;;;;;;;;;;5071915;28;20444;-67
2024/04/06 09:39:24;;;;;;;57.27;2.93;;;;;;;;;;5071610;28;20560;-67
2024/04/06 09:41:53;;;;;;;58.50;2.80;;;;;;;;;;5071379;28;20444;-67
2024/04/06 09:44:20;;;;;;;56.50;2.60;;;;;;;;;;5072390;28;20448;-67
2024/04/06 09:46:46;;;;;;;56.00;2.77;;;;;;;;;;5071881;28;20916;-67
2024/04/06 09:49:14;;;;;;;56.67;2.80;;;;;;;;;;5071714;28;20470;-67
2024/04/06 09:51:41;;;;;;;57.07;2.90;;;;;;;;;;5071293;28;20443;-67
2024/04/06 09:54:07;;;;;;;56.10;2.67;;;;;;;;;;5071594;28;20507;-67
2024/04/06 09:56:34;;;;;;;56.60;2.60;;;;;;;;;;5071664;28;20448;-67
2024/04/06 09:59:02;;;;;;;56.97;2.50;;;;;;;;;;5072099;28;20478;-67
2024/04/06 10:01:30;;;;;;;57.10;2.90;;;;;;;;;;5072385;28;20447;-67
2024/04/06 10:03:56;;;;;;;56.90;2.40;;;;;;;;;;5075389;28;20456;-68
2024/04/06 10:06:27;;;;;;;56.10;2.40;;;;;;;;;;5075762;28;20444;-67
2024/04/06 10:08:56;;;;;;;56.03;2.23;;;;;;;;;;5074930;28;20950;-68
2024/04/06 10:11:25;;;;;;;57.17;2.80;;;;;;;;;;5074076;28;20455;-68
2024/04/06 10:13:57;;;;;;;56.00;2.40;;;;;;;;;;5074092;28;20455;-68
2024/04/06 10:16:27;;;;;;;56.27;2.33;;;;;;;;;;5074699;28;20467;-68
2024/04/06 10:18:55;;;;;;;55.73;2.20;;;;;;;;;;5074410;28;20472;-68
2024/04/06 10:21:22;;;;;;;56.27;2.40;;;;;;;;;;5074230;28;20449;-68
2024/04/06 10:23:48;;;;;;;60.77;6.00;;;;;;;;;;5073770;28;20541;-68
2024/04/06 10:26:16;;;;;;;56.90;3.03;;;;;;;;;;5074264;28;20441;-68
2024/04/06 10:28:43;;;;;;;56.30;2.03;;;;;;;;;;5074083;28;20466;-68
2024/04/06 10:31:10;;;;;;;55.70;2.63;;;;;;;;;;5073419;28;20454;-68
2024/04/06 10:33:39;;;;;;;56.23;2.10;;;;;;;;;;5073974;28;20465;-68
2024/04/06 10:36:10;;;;;;;55.77;2.20;;;;;;;;;;5074097;28;20565;-68
2024/04/06 10:38:36;;;;;;;56.50;2.40;;;;;;;;;;5073753;28;20469;-68
2024/04/06 10:41:04;;;;;;;55.50;1.70;;;;;;;;;;5073557;28;20450;-68
2024/04/06 10:43:31;;;;;;;55.87;2.03;;;;;;;;;;5073493;28;20439;-68
2024/04/06 10:45:58;;;;;;;55.60;2.00;;;;;;;;;;5073953;28;20435;-68
2024/04/06 10:48:24;;;;;;;56.87;2.33;;;;;;;;;;5073922;28;20478;-68
2024/04/06 10:50:52;;;;;;;60.00;2.73;;;;;;;;;;5073402;28;20901;-68
2024/04/06 10:53:19;;;;;;;56.57;2.60;;;;;;;;;;5073608;28;20831;-68
2024/04/06 10:55:47;;;;;;;55.73;2.30;;;;;;;;;;5073814;28;21085;-67
2024/04/06 10:58:13;;;;;;;56.07;2.23;;;;;;;;;;5073350;28;20477;-68
2024/04/06 11:00:41;;;;;;;55.90;2.40;;;;;;;;;;5073373;28;20496;-68
2024/04/06 11:03:07;;;;;;;54.93;1.93;;;;;;;;;;5073521;28;20453;-68
2024/04/06 11:05:35;;;;;;;55.50;2.13;;;;;;;;;;5065304;28;20857;-68
2024/04/06 11:08:04;;;;;;;55.93;2.30;;;;;;;;;;5073512;28;20941;-68
2024/04/06 11:10:31;;;;;;;55.30;2.00;;;;;;;;;;5072792;28;20443;-68
2024/04/06 11:12:57;;;;;;;55.43;2.40;;;;;;;;;;5072627;28;20449;-68
2024/04/06 11:15:25;;;;;;;55.90;2.20;;;;;;;;;;5073194;28;20489;-68
2024/04/06 11:17:51;;;;;;;55.60;2.00;;;;;;;;;;5073348;28;20453;-68
2024/04/06 11:20:18;;;;;;;55.90;2.00;;;;;;;;;;5072728;28;20542;-68
2024/04/06 11:22:44;;;;;;;56.60;2.63;;;;;;;;;;5073172;28;20462;-68
2024/04/06 11:25:15;;;;;;;54.87;2.03;;;;;;;;;;5073301;28;20446;-68
2024/04/06 11:27:46;;;;;;;55.40;2.20;;;;;;;;;;5073204;28;20450;-68
2024/04/06 11:30:14;;;;;;;56.80;2.30;;;;;;;;;;5073001;28;20467;-68
2024/04/06 11:32:40;;;;;;;56.43;2.50;;;;;;;;;;5073019;28;20449;-68
2024/04/06 11:35:08;;;;;;;55.30;2.20;;;;;;;;;;5072565;28;20539;-68
2024/04/06 11:37:34;;;;;;;56.47;2.27;;;;;;;;;;5064410;28;20454;-68
2024/04/06 11:40:02;;;;;;;55.17;1.83;;;;;;;;;;5073103;28;20478;-68
2024/04/06 11:42:29;;;;;;;56.50;2.17;;;;;;;;;;5072618;28;20446;-68
2024/04/06 11:44:56;;;;;;;55.20;2.00;;;;;;;;;;5072903;28;20447;-68
2024/04/06 11:47:22;;;;;;;55.60;1.90;;;;;;;;;;5072674;28;20454;-68
2024/04/06 11:49:49;;;;;;;55.03;1.73;;;;;;;;;;5072458;28;20486;-68
2024/04/06 11:52:15;;;;;;;56.10;2.37;;;;;;;;;;5072019;28;20505;-68
2024/04/06 11:54:43;;;;;;;56.70;1.87;;;;;;;;;;5072222;28;20475;-68
2024/04/06 11:57:09;;;;;;;55.73;2.37;;;;;;;;;;5072527;28;20453;-68
2024/04/06 11:59:38;;;;;;;56.37;2.07;;;;;;;;;;5072392;28;20463;-69
2024/04/06 12:02:04;;;;;;;55.30;1.90;;;;;;;;;;5071777;28;20454;-68
2024/04/06 12:04:31;;;;;;;57.90;2.10;;;;;;;;;;5072263;28;20470;-69
2024/04/06 12:06:58;;;;;;;57.60;2.67;;;;;;;;;;5072090;28;20450;-68
2024/04/06 12:09:25;;;;;;;56.73;2.40;;;;;;;;;;5072118;28;20980;-67
2024/04/06 12:11:52;;;;;;;55.73;1.83;;;;;;;;;;5071967;28;20531;-68
2024/04/06 12:14:19;;;;;;;55.10;1.80;;;;;;;;;;5071801;28;20887;-67
2024/04/06 12:16:47;;;;;;;54.97;2.03;;;;;;;;;;5072330;28;20481;-67
2024/04/06 12:19:14;;;;;;;58.60;3.87;;;;;;;;;;5072085;28;20475;-67
2024/04/06 12:21:40;;;;;;;55.37;1.80;;;;;;;;;;5071744;28;20473;-67
2024/04/06 12:24:08;;;;;;;55.60;2.20;;;;;;;;;;5072037;28;20457;-68
2024/04/06 12:26:34;;;;;;;55.93;2.10;;;;;;;;;;5071271;28;20453;-67
2024/04/06 12:29:01;;;;;;;56.07;2.10;;;;;;;;;;5071911;28;20541;-68
2024/04/06 12:31:27;;;;;;;56.37;2.23;;;;;;;;;;5071366;28;20470;-68
2024/04/06 12:33:56;;;;;;;55.50;2.30;;;;;;;;;;5071531;28;20886;-68
2024/04/06 12:36:22;;;;;;;55.47;1.80;;;;;;;;;;5071557;28;20491;-68
2024/04/06 12:38:50;;;;;;;55.10;2.00;;;;;;;;;;5072115;28;20474;-69
2024/04/06 12:41:16;;;;;;;55.60;1.97;;;;;;;;;;5071073;28;20452;-68
2024/04/06 12:43:43;;;;;;;55.80;2.07;;;;;;;;;;5071470;28;20458;-67
2024/04/06 12:46:09;;;;;;;54.67;1.90;;;;;;;;;;5071836;28;20451;-68
2024/04/06 12:48:36;;;;;;;55.40;2.10;;;;;;;;;;5071570;28;20535;-67
2024/04/06 12:51:04;;;;;;;55.60;2.30;;;;;;;;;;5071015;28;20452;-67
2024/04/06 12:53:31;;;;;;;56.07;2.27;;;;;;;;;;5071402;28;20499;-68
2024/04/06 12:55:57;;;;;;;55.17;2.23;;;;;;;;;;5071422;28;20995;-68
2024/04/06 12:58:26;;;;;;;54.97;2.10;;;;;;;;;;5071271;28;20470;-68
2024/04/06 13:00:53;;;;;;;54.67;2.03;;;;;;;;;;5070797;28;20452;-68
2024/04/06 13:03:19;;;;;;;54.77;1.90;;;;;;;;;;5071017;28;20477;-68
2024/04/06 13:05:48;;;;;;;55.00;2.23;;;;;;;;;;5071282;28;20450;-67
2024/04/06 13:08:15;;;;;;;55.17;1.93;;;;;;;;;;5071375;28;20475;-67
2024/04/06 13:10:44;;;;;;;54.97;2.20;;;;;;;;;;5070942;28;20479;-67
2024/04/06 13:13:10;;;;;;;54.83;1.90;;;;;;;;;;5071219;28;20451;-68
2024/04/06 13:15:37;;;;;;;55.00;2.00;;;;;;;;;;5071096;28;20490;-67
2024/04/06 13:18:03;;;;;;;55.97;2.47;;;;;;;;;;5071009;28;20553;-68
2024/04/06 13:20:31;;;;;;;54.67;2.00;;;;;;;;;;5070684;28;20474;-68
2024/04/06 13:22:57;;;;;;;56.50;2.57;;;;;;;;;;5071073;28;20538;-68
2024/04/06 13:25:26;;;;;;;55.87;2.30;;;;;;;;;;5070841;28;20558;-68
2024/04/06 13:27:52;;;;;;;56.03;1.90;;;;;;;;;;5070924;28;20452;-69
2024/04/06 13:30:19;;;;;;;54.90;2.30;;;;;;;;;;5070367;28;20538;-68
2024/04/06 13:32:47;;;;;;;55.80;2.20;;;;;;;;;;5071051;28;20450;-68
2024/04/06 13:35:14;;;;;;;54.67;2.10;;;;;;;;;;5070973;28;20459;-68
2024/04/06 13:37:41;;;;;;;55.57;2.03;;;;;;;;;;5073553;28;20453;-68
2024/04/06 13:40:10;;;;;;;55.60;2.23;;;;;;;;;;5074773;28;20512;-68
2024/04/06 13:42:38;;;;;;;56.30;2.43;;;;;;;;;;5074630;28;20452;-68
2024/04/06 13:45:08;;;;;;;55.30;2.03;;;;;;;;;;5074825;28;20483;-68
2024/04/06 13:47:34;;;;;;;56.00;2.23;;;;;;;;;;5074555;28;20458;-68
2024/04/06 13:50:01;;;;;;;55.87;2.30;;;;;;;;;;5075190;28;20440;-68
2024/04/06 13:52:27;;;;;;;55.17;2.27;;;;;;;;;;5074242;28;20898;-68
2024/04/06 13:54:55;;;;;;;55.30;2.33;;;;;;;;;;5074666;28;20439;-68
2024/04/06 13:57:21;;;;;;;55.10;1.90;;;;;;;;;;5074270;28;20893;-68
2024/04/06 13:59:49;;;;;;;55.20;2.10;;;;;;;;;;5074720;28;20475;-68
2024/04/06 14:02:15;;;;;;;55.17;2.20;;;;;;;;;;5074116;28;20530;-67
2024/04/06 14:04:42;;;;;;;55.37;2.13;;;;;;;;;;5066094;28;20522;-68
2024/04/06 14:07:09;;;;;;;55.87;2.40;;;;;;;;;;5074457;28;20542;-68
2024/04/06 14:09:36;;;;;;;55.00;1.80;;;;;;;;;;5074213;28;20474;-67
2024/04/06 14:12:03;;;;;;;56.13;2.30;;;;;;;;;;5074037;28;20534;-68
2024/04/06 14:14:30;;;;;;;54.87;1.73;;;;;;;;;;5074309;28;20812;-68
2024/04/06 14:16:58;;;;;;;55.20;2.00;;;;;;;;;;5068655;28;20458;-67
2024/04/06 14:19:26;;;;;;;55.67;2.20;;;;;;;;;;5071686;28;20474;-68
2024/04/06 14:21:53;;;;;;;56.67;1.97;;;;;;;;;;5071750;28;20463;-67
2024/04/06 14:24:21;;;;;;;55.90;1.90;;;;;;;;;;5073981;28;20531;-68
2024/04/06 14:26:49;;;;;;;55.60;2.10;;;;;;;;;;5074004;28;20510;-67
2024/04/06 14:29:16;;;;;;;55.40;2.07;;;;;;;;;;5073812;28;20472;-68